Flight Track Log - Related Links

Times and Time Zones

All times are in EDT time to prevent confusion due to time zone crossing. See the N547US flight status page for this flight to view local times or setup timezone preferences in your user account.

Time Position Orientation Groundspeed Altitude Reporting Facility
EDT Latitude Longitude Course Direction KTS MPH feet Rate Location/Type
Wed 12:21:21 PM 29.9694 -90.2583 181° South 150 173 1,400  Level Houston Center
Wed 12:22:16 PM 29.9258 -90.2589 96° East 195 224 3,400 2,359 Climbing Houston Center
Wed 12:23:18 PM 29.9186 -90.1825 89° East 271 312 6,000 2,902 Climbing Houston Center
Wed 12:24:18 PM 29.9197 -90.0986 83° East 271 312 9,300 3,150 Climbing Houston Center
Wed 12:25:18 PM 29.9292 -90.0050 91° East 277 319 12,300 1,950 Climbing Houston Center
Wed 12:26:18 PM 29.9278 -89.8875 89° East 315 362 13,200 2,100 Climbing Houston Center
Wed 12:27:18 PM 29.9297 -89.7414 79° East 383 441 16,500 2,750 Climbing Houston Center
Wed 12:28:18 PM 29.9531 -89.6067 76° East 408 470 18,700 2,200 Climbing Houston Center
Wed 12:29:18 PM 29.9842 -89.4644 73° East 428 493 20,900 2,050 Climbing Houston Center
Wed 12:30:18 PM 30.0214 -89.3222 66° East 444 511 22,800 2,150 Climbing Houston Center
Wed 12:31:18 PM 30.0753 -89.1817 50° Northeast 466 536 25,200 2,500 Climbing Houston Center
Wed 12:32:18 PM 30.1567 -89.0692 47° Northeast 461 531 27,800 1,950 Climbing Houston Center
Wed 12:33:18 PM 30.2403 -88.9639 49° Northeast 449 517 29,100 1,300 Climbing Houston Center
Wed 12:34:18 PM 30.3236 -88.8533 48° Northeast 444 511 30,400 1,050 Climbing Houston Center
Wed 12:35:18 PM 30.4108 -88.7425 48° Northeast 450 518 31,200 950 Climbing Houston Center
Wed 12:36:18 PM 30.5003 -88.6267 53° Northeast 460 529 32,300 900 Climbing Houston Center
Wed 12:37:18 PM 30.5808 -88.5039 57° Northeast 472 543 33,000 350 Climbing Houston Center
Wed 12:38:18 PM 30.6528 -88.3736 59° Northeast 478 550 33,000  Level Houston Center
Wed 12:39:18 PM 30.7244 -88.2336 63° Northeast 487 560 33,000  Level Houston Center
Wed 12:40:18 PM 30.7856 -88.0961 62° Northeast 487 560 33,000  Level Houston Center
Wed 12:41:18 PM 30.8467 -87.9611 56° Northeast 477 549 33,000  Level Houston Center
Wed 12:42:18 PM 30.9203 -87.8350 45° Northeast 471 542 33,000  Level Houston Center
Wed 12:43:18 PM 31.0131 -87.7250 45° Northeast 466 536 33,000  Level Houston Center
Wed 12:45:40 PM 31.2275 -87.4700 46° Northeast 489 563 33,000  Level Atlanta Center
Wed 12:46:40 PM 31.3222 -87.3542 45° Northeast 479 551 33,000  Level Atlanta Center
Wed 12:47:40 PM 31.4192 -87.2411 46° Northeast 484 557 33,000  Level Atlanta Center
Wed 12:48:40 PM 31.5161 -87.1228 46° Northeast 490 564 33,000  Level Atlanta Center
Wed 12:49:40 PM 31.6131 -87.0064 48° Northeast 490 564 33,000  Level Atlanta Center
Wed 12:50:40 PM 31.7033 -86.8900 46° Northeast 485 558 33,000 -200 Level Atlanta Center
Wed 12:51:40 PM 31.8000 -86.7731 46° Northeast 485 558 32,600 -400 Descending Atlanta Center
Wed 12:52:40 PM 31.9028 -86.6467 44° Northeast 485 558 32,200 -300 Descending Atlanta Center
Wed 12:53:40 PM 31.9925 -86.5439 47° Northeast 494 568 32,000 -100 Descending Atlanta Center
Wed 12:54:40 PM 32.0867 -86.4242 48° Northeast 494 568 32,000  Level Atlanta Center
Wed 12:55:40 PM 32.1872 -86.2942 48° Northeast 482 555 32,000  Level Atlanta Center
Wed 12:56:40 PM 32.2728 -86.1808 46° Northeast 488 562 32,000  Level Atlanta Center
Wed 12:57:40 PM 32.3686 -86.0628 46° Northeast 488 562 32,000 -100 Level Atlanta Center
Wed 12:58:40 PM 32.4667 -85.9419 47° Northeast 488 562 31,800 -850 Descending Atlanta Center
Wed 12:59:40 PM 32.5539 -85.8328 47° Northeast 502 578 30,300 -1,650 Descending Atlanta Center
Wed 01:00:40 PM 32.6539 -85.7042 46° Northeast 496 571 28,500 -1,800 Descending Atlanta Center
Wed 01:01:40 PM 32.7514 -85.5825 46° Northeast 496 571 26,700 -1,850 Descending Atlanta Center
Wed 01:02:40 PM 32.8489 -85.4606 47° Northeast 496 571 24,800 -2,200 Descending Atlanta Center
Wed 01:03:40 PM 32.9442 -85.3408 47° Northeast 496 571 22,300 -2,700 Descending Atlanta Center
Wed 01:04:40 PM 33.0331 -85.2256 47° Northeast 482 555 19,400 -2,700 Descending Atlanta Center
Wed 01:05:40 PM 33.1069 -85.1325 48° Northeast 455 524 16,900 -2,600 Descending Atlanta Center
Wed 01:06:40 PM 33.1850 -85.0292 48° Northeast 425 489 14,200 -1,700 Descending Atlanta Center
Wed 01:07:40 PM 33.2608 -84.9283 48° Northeast 412 474 13,500 -1,100 Descending Atlanta Center
Wed 01:08:40 PM 33.3367 -84.8269 49° Northeast 406 467 12,000 -750 Descending Atlanta Center
Wed 01:09:40 PM 33.4103 -84.7256 48° Northeast 411 473 12,000  Level Atlanta Center
Wed 01:10:40 PM 33.4797 -84.6342 48° Northeast 392 451 12,000 -50 Level Atlanta Center
Wed 01:11:40 PM 33.5386 -84.5547 84° East 334 384 11,900 -600 Descending Atlanta Center
Wed 01:12:40 PM 33.5472 -84.4625 92° East 272 313 10,800 -1,400 Descending Atlanta Center
Wed 01:13:40 PM 33.5453 -84.3803 83° East 249 287 9,100 -1,851 Descending Atlanta Center
Wed 01:14:14 PM 33.5500 -84.3333 90° East 243 280 7,900 -1,979 Descending Atlanta TRACON
Wed 01:15:14 PM 33.5500 -84.2500 51° Northeast 242 278 6,000 -1,850 Descending Atlanta TRACON
Wed 01:16:14 PM 33.5833 -84.2000 309° West 246 283 4,200 -1,250 Descending Atlanta TRACON
Wed 01:17:14 PM 33.6167 -84.2500 270° West 214 246 3,500 -850 Descending Atlanta TRACON
Wed 01:18:14 PM 33.6167 -84.3167 270° West 200 230 2,500 -950 Descending Atlanta TRACON
Wed 01:19:14 PM 33.6167 -84.3833 270° West 158 182 1,600 -900 Descending Atlanta TRACON

Login

Don't have an account? Register now (free) for customized features, flight alerts, and more!